Ola, Idaho
Current Conditions -  °F | °C
As of 1:53 PM on Friday 19 Dec 2014 (Local Time) from KONO Reporting Station
Light Rain Light Rain  
Wind Chill: 42°   Ceiling: 3000
Heat Index: 42°   Visibility: 4mi
Dew Point: 39°   Wind: 0mph
Humidity: 89%   Direction: NA
Pressure: 30.05"   Gusts: NA
Location:  44.18°N, 116.3°W
Report Text: KONO 192053Z AUTO 00000KT 4SM -RA BR BKN030 OVC036 06/04 A3005 RMK AO2 RAB46 SLP188 P0000 60008 T00560039 58005
Loading
Personal Weather Stations






























Interactive Weather Map New forecast layout! Learn more

10-Day Weather Forecast

Advertisements
Track Severe Weather on mobile